sensor_id;sensor_type;location;lat;lon;timestamp;temperature;humidity
67354;SHT30;54238;52.278;21.056;2023-09-08T00:02:27;20.06;63.47
67354;SHT30;54238;52.278;21.056;2023-09-08T00:04:57;20.03;63.36
67354;SHT30;54238;52.278;21.056;2023-09-08T00:07:26;20.02;63.35
67354;SHT30;54238;52.278;21.056;2023-09-08T00:09:58;20.01;63.27
67354;SHT30;54238;52.278;21.056;2023-09-08T00:12:27;19.97;63.41
67354;SHT30;54238;52.278;21.056;2023-09-08T00:14:57;19.92;63.53
67354;SHT30;54238;52.278;21.056;2023-09-08T00:17:30;19.92;63.55
67354;SHT30;54238;52.278;21.056;2023-09-08T00:20:03;19.95;63.40
67354;SHT30;54238;52.278;21.056;2023-09-08T00:22:36;19.94;63.62
67354;SHT30;54238;52.278;21.056;2023-09-08T00:25:09;19.93;63.73
67354;SHT30;54238;52.278;21.056;2023-09-08T00:27:41;19.93;63.64
67354;SHT30;54238;52.278;21.056;2023-09-08T00:30:10;19.92;63.72
67354;SHT30;54238;52.278;21.056;2023-09-08T00:32:43;19.91;63.65
67354;SHT30;54238;52.278;21.056;2023-09-08T00:35:13;19.90;63.73
67354;SHT30;54238;52.278;21.056;2023-09-08T00:37:40;19.85;63.66
67354;SHT30;54238;52.278;21.056;2023-09-08T00:40:12;19.83;63.74
67354;SHT30;54238;52.278;21.056;2023-09-08T00:42:39;19.83;64.02
67354;SHT30;54238;52.278;21.056;2023-09-08T00:45:09;19.79;64.13
67354;SHT30;54238;52.278;21.056;2023-09-08T00:47:37;19.76;64.26
67354;SHT30;54238;52.278;21.056;2023-09-08T00:50:08;19.75;64.25
67354;SHT30;54238;52.278;21.056;2023-09-08T00:52:40;19.74;64.30
67354;SHT30;54238;52.278;21.056;2023-09-08T00:55:07;19.72;64.35
67354;SHT30;54238;52.278;21.056;2023-09-08T00:57:35;19.72;64.35
67354;SHT30;54238;52.278;21.056;2023-09-08T01:00:03;19.72;64.30
67354;SHT30;54238;52.278;21.056;2023-09-08T01:02:38;19.71;64.52
67354;SHT30;54238;52.278;21.056;2023-09-08T01:05:09;19.67;64.62
67354;SHT30;54238;52.278;21.056;2023-09-08T01:07:36;19.63;64.84
67354;SHT30;54238;52.278;21.056;2023-09-08T01:10:04;19.63;64.94
67354;SHT30;54238;52.278;21.056;2023-09-08T01:12:36;19.62;64.95
67354;SHT30;54238;52.278;21.056;2023-09-08T01:15:04;19.64;64.84
67354;SHT30;54238;52.278;21.056;2023-09-08T01:17:37;19.65;64.79
67354;SHT30;54238;52.278;21.056;2023-09-08T01:20:10;19.64;64.91
67354;SHT30;54238;52.278;21.056;2023-09-08T01:26:15;19.61;65.06
67354;SHT30;54238;52.278;21.056;2023-09-08T01:28:49;19.60;65.08
67354;SHT30;54238;52.278;21.056;2023-09-08T01:31:20;19.57;65.02
67354;SHT30;54238;52.278;21.056;2023-09-08T01:33:49;19.53;65.17
67354;SHT30;54238;52.278;21.056;2023-09-08T01:36:18;19.52;65.13
67354;SHT30;54238;52.278;21.056;2023-09-08T01:38:47;19.51;65.18
67354;SHT30;54238;52.278;21.056;2023-09-08T01:41:16;19.51;65.26
67354;SHT30;54238;52.278;21.056;2023-09-08T01:43:45;19.50;65.30
67354;SHT30;54238;52.278;21.056;2023-09-08T01:46:16;19.50;65.40
67354;SHT30;54238;52.278;21.056;2023-09-08T01:48:45;19.49;65.38
67354;SHT30;54238;52.278;21.056;2023-09-08T01:51:14;19.50;65.33
67354;SHT30;54238;52.278;21.056;2023-09-08T01:53:41;19.53;65.23
67354;SHT30;54238;52.278;21.056;2023-09-08T01:56:08;19.56;65.12
67354;SHT30;54238;52.278;21.056;2023-09-08T01:58:35;19.57;65.09
67354;SHT30;54238;52.278;21.056;2023-09-08T02:01:07;19.58;65.05
67354;SHT30;54238;52.278;21.056;2023-09-08T02:03:34;19.59;65.01
67354;SHT30;54238;52.278;21.056;2023-09-08T02:06:03;19.59;65.02
67354;SHT30;54238;52.278;21.056;2023-09-08T02:08:37;19.60;65.02
67354;SHT30;54238;52.278;21.056;2023-09-08T02:11:07;19.59;65.01
67354;SHT30;54238;52.278;21.056;2023-09-08T02:13:34;19.58;65.01
67354;SHT30;54238;52.278;21.056;2023-09-08T02:16:03;19.57;65.09
67354;SHT30;54238;52.278;21.056;2023-09-08T02:18:34;19.55;65.11
67354;SHT30;54238;52.278;21.056;2023-09-08T02:21:03;19.56;65.19
67354;SHT30;54238;52.278;21.056;2023-09-08T02:23:34;19.57;65.11
67354;SHT30;54238;52.278;21.056;2023-09-08T02:26:03;19.55;65.12
67354;SHT30;54238;52.278;21.056;2023-09-08T02:28:30;19.54;65.22
67354;SHT30;54238;52.278;21.056;2023-09-08T02:31:02;19.53;65.19
67354;SHT30;54238;52.278;21.056;2023-09-08T02:33:34;19.52;65.20
67354;SHT30;54238;52.278;21.056;2023-09-08T02:36:04;19.54;65.21
67354;SHT30;54238;52.278;21.056;2023-09-08T02:38:36;19.52;65.20
67354;SHT30;54238;52.278;21.056;2023-09-08T02:41:06;19.51;65.20
67354;SHT30;54238;52.278;21.056;2023-09-08T02:43:37;19.51;65.23
67354;SHT30;54238;52.278;21.056;2023-09-08T02:46:04;19.51;65.23
67354;SHT30;54238;52.278;21.056;2023-09-08T02:48:38;19.48;65.28
67354;SHT30;54238;52.278;21.056;2023-09-08T02:51:05;19.48;65.28
67354;SHT30;54238;52.278;21.056;2023-09-08T02:53:32;19.48;65.32
67354;SHT30;54238;52.278;21.056;2023-09-08T02:56:02;19.47;65.46
67354;SHT30;54238;52.278;21.056;2023-09-08T02:58:32;19.46;65.49
67354;SHT30;54238;52.278;21.056;2023-09-08T03:03:49;19.43;65.48
67354;SHT30;54238;52.278;21.056;2023-09-08T03:06:21;19.41;65.58
67354;SHT30;54238;52.278;21.056;2023-09-08T03:08:50;19.42;65.58
67354;SHT30;54238;52.278;21.056;2023-09-08T03:11:20;19.41;65.55
67354;SHT30;54238;52.278;21.056;2023-09-08T03:13:49;19.40;65.59
67354;SHT30;54238;52.278;21.056;2023-09-08T03:16:16;19.39;65.71
67354;SHT30;54238;52.278;21.056;2023-09-08T03:18:51;19.35;65.75
67354;SHT30;54238;52.278;21.056;2023-09-08T03:21:18;19.33;65.82
67354;SHT30;54238;52.278;21.056;2023-09-08T03:23:52;19.30;65.87
67354;SHT30;54238;52.278;21.056;2023-09-08T03:26:22;19.26;66.00
67354;SHT30;54238;52.278;21.056;2023-09-08T03:28:51;19.24;66.00
67354;SHT30;54238;52.278;21.056;2023-09-08T03:31:20;19.23;66.03
67354;SHT30;54238;52.278;21.056;2023-09-08T03:33:54;19.23;66.07
67354;SHT30;54238;52.278;21.056;2023-09-08T03:36:25;19.23;66.08
67354;SHT30;54238;52.278;21.056;2023-09-08T03:38:57;19.21;66.10
67354;SHT30;54238;52.278;21.056;2023-09-08T03:41:27;19.22;66.12
67354;SHT30;54238;52.278;21.056;2023-09-08T03:43:57;19.23;66.14
67354;SHT30;54238;52.278;21.056;2023-09-08T03:46:31;19.23;66.12
67354;SHT30;54238;52.278;21.056;2023-09-08T03:49:00;19.22;66.17
67354;SHT30;54238;52.278;21.056;2023-09-08T03:51:32;19.21;66.17
67354;SHT30;54238;52.278;21.056;2023-09-08T03:54:00;19.21;66.20
67354;SHT30;54238;52.278;21.056;2023-09-08T03:56:30;19.19;66.26
67354;SHT30;54238;52.278;21.056;2023-09-08T03:59:02;19.18;66.32
67354;SHT30;54238;52.278;21.056;2023-09-08T04:01:33;19.16;66.36
67354;SHT30;54238;52.278;21.056;2023-09-08T04:04:02;19.13;66.40
67354;SHT30;54238;52.278;21.056;2023-09-08T04:06:30;19.12;66.46
67354;SHT30;54238;52.278;21.056;2023-09-08T04:08:59;19.12;66.52
67354;SHT30;54238;52.278;21.056;2023-09-08T04:11:31;19.11;66.53
67354;SHT30;54238;52.278;21.056;2023-09-08T04:14:00;19.10;66.58
67354;SHT30;54238;52.278;21.056;2023-09-08T04:16:30;19.10;66.60
67354;SHT30;54238;52.278;21.056;2023-09-08T04:19:02;19.08;66.73
67354;SHT30;54238;52.278;21.056;2023-09-08T04:21:31;19.06;66.77
67354;SHT30;54238;52.278;21.056;2023-09-08T04:23:58;19.05;66.83
67354;SHT30;54238;52.278;21.056;2023-09-08T04:26:29;19.04;66.84
67354;SHT30;54238;52.278;21.056;2023-09-08T04:28:56;19.03;66.90
67354;SHT30;54238;52.278;21.056;2023-09-08T04:31:23;19.03;66.90
67354;SHT30;54238;52.278;21.056;2023-09-08T04:33:53;19.02;66.96
67354;SHT30;54238;52.278;21.056;2023-09-08T04:36:20;19.03;66.94
67354;SHT30;54238;52.278;21.056;2023-09-08T04:38:50;19.03;66.94
67354;SHT30;54238;52.278;21.056;2023-09-08T04:41:21;19.02;66.96
67354;SHT30;54238;52.278;21.056;2023-09-08T04:43:49;19.02;67.00
67354;SHT30;54238;52.278;21.056;2023-09-08T04:46:16;19.03;66.98
67354;SHT30;54238;52.278;21.056;2023-09-08T04:48:45;19.04;66.95
67354;SHT30;54238;52.278;21.056;2023-09-08T04:51:14;19.04;66.95
67354;SHT30;54238;52.278;21.056;2023-09-08T04:53:41;19.07;66.96
67354;SHT30;54238;52.278;21.056;2023-09-08T04:56:11;19.07;66.95
67354;SHT30;54238;52.278;21.056;2023-09-08T04:58:42;19.08;66.92
67354;SHT30;54238;52.278;21.056;2023-09-08T05:01:16;19.09;66.92
67354;SHT30;54238;52.278;21.056;2023-09-08T05:03:50;19.12;66.91
67354;SHT30;54238;52.278;21.056;2023-09-08T05:06:19;19.13;66.90
67354;SHT30;54238;52.278;21.056;2023-09-08T05:08:46;19.14;66.88
67354;SHT30;54238;52.278;21.056;2023-09-08T05:11:16;19.16;66.87
67354;SHT30;54238;52.278;21.056;2023-09-08T05:13:43;19.20;66.85
67354;SHT30;54238;52.278;21.056;2023-09-08T05:16:16;19.21;66.81
67354;SHT30;54238;52.278;21.056;2023-09-08T05:18:45;19.23;66.84
67354;SHT30;54238;52.278;21.056;2023-09-08T05:21:14;19.24;66.90
67354;SHT30;54238;52.278;21.056;2023-09-08T05:23:49;19.24;66.90
67354;SHT30;54238;52.278;21.056;2023-09-08T05:26:18;19.25;66.90
67354;SHT30;54238;52.278;21.056;2023-09-08T05:28:53;19.27;66.90
67354;SHT30;54238;52.278;21.056;2023-09-08T05:31:24;19.32;66.90
67354;SHT30;54238;52.278;21.056;2023-09-08T05:33:52;19.36;66.82
67354;SHT30;54238;52.278;21.056;2023-09-08T05:36:21;19.39;66.73
67354;SHT30;54238;52.278;21.056;2023-09-08T05:38:55;19.44;66.69
67354;SHT30;54238;52.278;21.056;2023-09-08T05:41:25;19.47;66.67
67354;SHT30;54238;52.278;21.056;2023-09-08T05:43:57;19.51;66.62
67354;SHT30;54238;52.278;21.056;2023-09-08T05:46:26;19.52;66.62
67354;SHT30;54238;52.278;21.056;2023-09-08T05:48:56;19.54;66.64
67354;SHT30;54238;52.278;21.056;2023-09-08T05:51:27;19.57;66.58
67354;SHT30;54238;52.278;21.056;2023-09-08T05:53:59;19.59;66.62
67354;SHT30;54238;52.278;21.056;2023-09-08T05:56:29;19.61;66.62
67354;SHT30;54238;52.278;21.056;2023-09-08T05:59:05;19.63;66.68
67354;SHT30;54238;52.278;21.056;2023-09-08T06:01:34;19.65;66.63
67354;SHT30;54238;52.278;21.056;2023-09-08T06:04:07;19.69;66.57
67354;SHT30;54238;52.278;21.056;2023-09-08T06:06:36;19.73;66.56
67354;SHT30;54238;52.278;21.056;2023-09-08T06:09:04;19.76;66.52
67354;SHT30;54238;52.278;21.056;2023-09-08T06:11:35;19.81;66.49
67354;SHT30;54238;52.278;21.056;2023-09-08T06:14:05;19.86;66.41
67354;SHT30;54238;52.278;21.056;2023-09-08T06:16:34;19.91;66.26
67354;SHT30;54238;52.278;21.056;2023-09-08T06:19:06;19.99;66.15
67354;SHT30;54238;52.278;21.056;2023-09-08T06:21:33;20.06;66.03
67354;SHT30;54238;52.278;21.056;2023-09-08T06:24:03;20.11;65.93
67354;SHT30;54238;52.278;21.056;2023-09-08T06:26:35;20.14;65.83
67354;SHT30;54238;52.278;21.056;2023-09-08T06:29:03;20.21;65.74
67354;SHT30;54238;52.278;21.056;2023-09-08T06:31:35;20.31;65.57
67354;SHT30;54238;52.278;21.056;2023-09-08T06:34:02;20.42;65.41
67354;SHT30;54238;52.278;21.056;2023-09-08T06:36:30;20.55;65.25
67354;SHT30;54238;52.278;21.056;2023-09-08T06:38:59;20.68;64.98
67354;SHT30;54238;52.278;21.056;2023-09-08T06:41:30;20.80;64.70
67354;SHT30;54238;52.278;21.056;2023-09-08T06:43:57;20.88;64.57
67354;SHT30;54238;52.278;21.056;2023-09-08T06:46:31;20.99;64.27
67354;SHT30;54238;52.278;21.056;2023-09-08T06:49:00;21.08;64.08
67354;SHT30;54238;52.278;21.056;2023-09-08T06:51:27;21.17;63.79
67354;SHT30;54238;52.278;21.056;2023-09-08T06:54:01;21.26;63.61
67354;SHT30;54238;52.278;21.056;2023-09-08T06:56:31;21.37;63.45
67354;SHT30;54238;52.278;21.056;2023-09-08T06:59:01;21.48;63.17
67354;SHT30;54238;52.278;21.056;2023-09-08T07:01:31;21.59;62.79
67354;SHT30;54238;52.278;21.056;2023-09-08T07:04:01;21.69;62.57
67354;SHT30;54238;52.278;21.056;2023-09-08T07:06:32;21.80;62.39
67354;SHT30;54238;52.278;21.056;2023-09-08T07:09:08;21.92;62.19
67354;SHT30;54238;52.278;21.056;2023-09-08T07:11:40;22.03;61.86
67354;SHT30;54238;52.278;21.056;2023-09-08T07:14:07;22.12;61.66
67354;SHT30;54238;52.278;21.056;2023-09-08T07:16:34;22.24;61.48
67354;SHT30;54238;52.278;21.056;2023-09-08T07:19:03;22.36;61.17
67354;SHT30;54238;52.278;21.056;2023-09-08T07:21:36;22.48;60.97
67354;SHT30;54238;52.278;21.056;2023-09-08T07:24:03;22.62;60.68
67354;SHT30;54238;52.278;21.056;2023-09-08T07:26:35;22.74;60.41
67354;SHT30;54238;52.278;21.056;2023-09-08T07:29:04;22.84;60.08
67354;SHT30;54238;52.278;21.056;2023-09-08T07:31:31;22.90;59.88
67354;SHT30;54238;52.278;21.056;2023-09-08T07:33:58;22.94;59.74
67354;SHT30;54238;52.278;21.056;2023-09-08T07:36:28;23.00;59.62
67354;SHT30;54238;52.278;21.056;2023-09-08T07:38:57;23.10;59.67
67354;SHT30;54238;52.278;21.056;2023-09-08T07:41:29;23.21;59.68
67354;SHT30;54238;52.278;21.056;2023-09-08T07:43:56;23.34;59.33
67354;SHT30;54238;52.278;21.056;2023-09-08T07:46:23;23.49;58.94
67354;SHT30;54238;52.278;21.056;2023-09-08T07:48:50;23.69;58.28
67354;SHT30;54238;52.278;21.056;2023-09-08T07:51:19;23.84;57.55
67354;SHT30;54238;52.278;21.056;2023-09-08T07:53:49;23.94;57.54
67354;SHT30;54238;52.278;21.056;2023-09-08T07:56:22;24.08;57.49
67354;SHT30;54238;52.278;21.056;2023-09-08T07:58:49;24.24;57.15
67354;SHT30;54238;52.278;21.056;2023-09-08T08:01:19;24.38;56.55
67354;SHT30;54238;52.278;21.056;2023-09-08T08:03:49;24.54;56.36
67354;SHT30;54238;52.278;21.056;2023-09-08T08:06:16;24.70;56.09
67354;SHT30;54238;52.278;21.056;2023-09-08T08:08:46;24.84;55.42
67354;SHT30;54238;52.278;21.056;2023-09-08T08:11:16;24.99;54.95
67354;SHT30;54238;52.278;21.056;2023-09-08T08:13:49;25.11;54.88
67354;SHT30;54238;52.278;21.056;2023-09-08T08:16:19;25.23;54.59
67354;SHT30;54238;52.278;21.056;2023-09-08T08:18:51;25.38;54.36
67354;SHT30;54238;52.278;21.056;2023-09-08T08:21:18;25.53;53.88
67354;SHT30;54238;52.278;21.056;2023-09-08T08:23:52;25.73;53.75
67354;SHT30;54238;52.278;21.056;2023-09-08T08:26:19;25.91;53.99
67354;SHT30;54238;52.278;21.056;2023-09-08T08:28:49;26.15;53.61
67354;SHT30;54238;52.278;21.056;2023-09-08T08:31:16;26.42;53.55
67354;SHT30;54238;52.278;21.056;2023-09-08T08:33:47;26.69;52.30
67354;SHT30;54238;52.278;21.056;2023-09-08T08:36:19;26.91;51.30
67354;SHT30;54238;52.278;21.056;2023-09-08T08:38:46;27.07;50.77
67354;SHT30;54238;52.278;21.056;2023-09-08T08:41:21;27.21;50.64
67354;SHT30;54238;52.278;21.056;2023-09-08T08:43:48;27.38;50.91
67354;SHT30;54238;52.278;21.056;2023-09-08T08:46:17;27.59;49.91
67354;SHT30;54238;52.278;21.056;2023-09-08T08:48:49;27.77;49.32
67354;SHT30;54238;52.278;21.056;2023-09-08T08:51:21;27.99;48.94
67354;SHT30;54238;52.278;21.056;2023-09-08T08:53:53;28.15;48.99
67354;SHT30;54238;52.278;21.056;2023-09-08T08:56:20;28.30;48.59
67354;SHT30;54238;52.278;21.056;2023-09-08T08:58:55;28.50;48.62
67354;SHT30;54238;52.278;21.056;2023-09-08T09:01:27;28.74;48.32
67354;SHT30;54238;52.278;21.056;2023-09-08T09:03:57;28.93;47.67
67354;SHT30;54238;52.278;21.056;2023-09-08T09:06:26;29.12;47.19
67354;SHT30;54238;52.278;21.056;2023-09-08T09:08:56;29.22;46.18
67354;SHT30;54238;52.278;21.056;2023-09-08T09:11:25;29.31;45.11
67354;SHT30;54238;52.278;21.056;2023-09-08T09:13:52;29.32;44.83
67354;SHT30;54238;52.278;21.056;2023-09-08T09:16:21;29.40;44.82
67354;SHT30;54238;52.278;21.056;2023-09-08T09:21:42;29.92;43.99
67354;SHT30;54238;52.278;21.056;2023-09-08T09:24:15;30.26;42.95
67354;SHT30;54238;52.278;21.056;2023-09-08T09:26:57;30.55;42.23
67354;SHT30;54238;52.278;21.056;2023-09-08T09:29:24;30.85;41.77
67354;SHT30;54238;52.278;21.056;2023-09-08T09:32:06;31.05;41.31
67354;SHT30;54238;52.278;21.056;2023-09-08T09:34:36;31.14;41.07
67354;SHT30;54238;52.278;21.056;2023-09-08T09:37:23;31.29;41.13
67354;SHT30;54238;52.278;21.056;2023-09-08T09:39:53;31.49;41.06
67354;SHT30;54238;52.278;21.056;2023-09-08T09:42:21;31.76;39.79
67354;SHT30;54238;52.278;21.056;2023-09-08T09:44:53;32.15;39.14
67354;SHT30;54238;52.278;21.056;2023-09-08T09:47:22;32.46;38.34
67354;SHT30;54238;52.278;21.056;2023-09-08T09:49:49;32.73;37.73
67354;SHT30;54238;52.278;21.056;2023-09-08T09:52:23;33.03;38.11
67354;SHT30;54238;52.278;21.056;2023-09-08T09:54:53;33.35;37.05
67354;SHT30;54238;52.278;21.056;2023-09-08T09:57:22;33.33;36.29
67354;SHT30;54238;52.278;21.056;2023-09-08T09:59:52;33.41;35.38
67354;SHT30;54238;52.278;21.056;2023-09-08T10:02:23;33.36;35.74
67354;SHT30;54238;52.278;21.056;2023-09-08T10:04:59;33.56;36.37
67354;SHT30;54238;52.278;21.056;2023-09-08T10:07:41;33.85;35.20
67354;SHT30;54238;52.278;21.056;2023-09-08T10:10:09;34.09;34.42
67354;SHT30;54238;52.278;21.056;2023-09-08T10:12:37;34.36;34.51
67354;SHT30;54238;52.278;21.056;2023-09-08T10:15:05;34.25;34.80
67354;SHT30;54238;52.278;21.056;2023-09-08T10:17:40;33.96;34.28
67354;SHT30;54238;52.278;21.056;2023-09-08T10:20:09;33.60;33.51
67354;SHT30;54238;52.278;21.056;2023-09-08T10:22:41;33.26;33.94
67354;SHT30;54238;52.278;21.056;2023-09-08T10:25:09;32.87;34.47
67354;SHT30;54238;52.278;21.056;2023-09-08T10:27:43;32.65;34.64
67354;SHT30;54238;52.278;21.056;2023-09-08T10:30:17;32.88;34.45
67354;SHT30;54238;52.278;21.056;2023-09-08T10:32:54;33.30;33.93
67354;SHT30;54238;52.278;21.056;2023-09-08T10:35:25;33.61;32.13
67354;SHT30;54238;52.278;21.056;2023-09-08T10:38:31;33.93;32.19
67354;SHT30;54238;52.278;21.056;2023-09-08T10:40:54;34.46;31.95
67354;SHT30;54238;52.278;21.056;2023-09-08T10:43:43;34.96;31.54
67354;SHT30;54238;52.278;21.056;2023-09-08T10:46:28;35.38;30.96
67354;SHT30;54238;52.278;21.056;2023-09-08T10:49:03;35.81;30.39
67354;SHT30;54238;52.278;21.056;2023-09-08T10:51:34;36.12;30.06
67354;SHT30;54238;52.278;21.056;2023-09-08T10:54:01;36.40;29.39
67354;SHT30;54238;52.278;21.056;2023-09-08T10:56:53;36.71;29.42
67354;SHT30;54238;52.278;21.056;2023-09-08T10:59:28;37.05;28.29
67354;SHT30;54238;52.278;21.056;2023-09-08T11:01:56;37.14;27.69
67354;SHT30;54238;52.278;21.056;2023-09-08T11:04:32;37.11;27.81
67354;SHT30;54238;52.278;21.056;2023-09-08T11:07:06;37.06;27.76
67354;SHT30;54238;52.278;21.056;2023-09-08T11:09:36;36.75;27.93
67354;SHT30;54238;52.278;21.056;2023-09-08T11:12:08;36.81;28.47
67354;SHT30;54238;52.278;21.056;2023-09-08T11:14:37;37.09;28.26
67354;SHT30;54238;52.278;21.056;2023-09-08T11:17:04;37.30;27.54
67354;SHT30;54238;52.278;21.056;2023-09-08T11:19:52;37.47;27.24
67354;SHT30;54238;52.278;21.056;2023-09-08T11:22:21;37.67;27.20
67354;SHT30;54238;52.278;21.056;2023-09-08T11:24:53;37.89;27.11
67354;SHT30;54238;52.278;21.056;2023-09-08T11:27:25;38.01;26.55
67354;SHT30;54238;52.278;21.056;2023-09-08T11:29:55;37.96;26.77
67354;SHT30;54238;52.278;21.056;2023-09-08T11:32:31;38.26;26.59
67354;SHT30;54238;52.278;21.056;2023-09-08T11:35:08;38.59;26.77
67354;SHT30;54238;52.278;21.056;2023-09-08T11:37:44;38.86;26.12
67354;SHT30;54238;52.278;21.056;2023-09-08T11:40:12;38.99;25.39
67354;SHT30;54238;52.278;21.056;2023-09-08T11:42:41;38.98;25.09
67354;SHT30;54238;52.278;21.056;2023-09-08T11:45:17;39.15;25.55
67354;SHT30;54238;52.278;21.056;2023-09-08T11:47:50;39.50;25.30
67354;SHT30;54238;52.278;21.056;2023-09-08T11:50:22;39.74;24.58
67354;SHT30;54238;52.278;21.056;2023-09-08T11:52:53;39.83;24.25
67354;SHT30;54238;52.278;21.056;2023-09-08T11:55:24;39.94;24.43
67354;SHT30;54238;52.278;21.056;2023-09-08T11:57:54;39.96;24.43
67354;SHT30;54238;52.278;21.056;2023-09-08T12:00:28;40.24;24.15
67354;SHT30;54238;52.278;21.056;2023-09-08T12:03:08;40.44;23.82
67354;SHT30;54238;52.278;21.056;2023-09-08T12:05:42;40.63;23.81
67354;SHT30;54238;52.278;21.056;2023-09-08T12:08:24;40.72;23.88
67354;SHT30;54238;52.278;21.056;2023-09-08T12:10:57;40.96;23.24
67354;SHT30;54238;52.278;21.056;2023-09-08T12:13:24;40.94;22.94
67354;SHT30;54238;52.278;21.056;2023-09-08T12:15:58;40.75;22.75
67354;SHT30;54238;52.278;21.056;2023-09-08T12:18:40;40.63;22.66
67354;SHT30;54238;52.278;21.056;2023-09-08T12:21:07;40.29;22.72
67354;SHT30;54238;52.278;21.056;2023-09-08T12:23:46;39.52;24.03
67354;SHT30;54238;52.278;21.056;2023-09-08T12:26:21;38.83;24.29
67354;SHT30;54238;52.278;21.056;2023-09-08T12:28:53;38.16;24.88
67354;SHT30;54238;52.278;21.056;2023-09-08T12:31:20;37.45;25.41
67354;SHT30;54238;52.278;21.056;2023-09-08T12:33:53;36.87;25.67
67354;SHT30;54238;52.278;21.056;2023-09-08T12:36:21;36.46;26.26
67354;SHT30;54238;52.278;21.056;2023-09-08T12:38:51;36.52;26.80
67354;SHT30;54238;52.278;21.056;2023-09-08T12:41:23;36.76;26.72
67354;SHT30;54238;52.278;21.056;2023-09-08T12:43:52;36.99;27.34
67354;SHT30;54238;52.278;21.056;2023-09-08T12:46:22;36.83;27.41
67354;SHT30;54238;52.278;21.056;2023-09-08T12:48:49;36.65;27.31
67354;SHT30;54238;52.278;21.056;2023-09-08T12:51:21;36.30;28.30
67354;SHT30;54238;52.278;21.056;2023-09-08T12:53:50;35.97;28.74
67354;SHT30;54238;52.278;21.056;2023-09-08T12:56:17;35.92;29.13
67354;SHT30;54238;52.278;21.056;2023-09-08T12:58:46;35.90;29.29
67354;SHT30;54238;52.278;21.056;2023-09-08T13:01:16;36.27;27.83
67354;SHT30;54238;52.278;21.056;2023-09-08T13:03:43;36.67;27.63
67354;SHT30;54238;52.278;21.056;2023-09-08T13:06:12;37.14;27.32
67354;SHT30;54238;52.278;21.056;2023-09-08T13:08:42;37.65;26.39
67354;SHT30;54238;52.278;21.056;2023-09-08T13:11:12;38.17;25.44
67354;SHT30;54238;52.278;21.056;2023-09-08T13:13:39;38.56;25.39
67354;SHT30;54238;52.278;21.056;2023-09-08T13:16:12;38.96;25.12
67354;SHT30;54238;52.278;21.056;2023-09-08T13:18:42;39.08;25.00
67354;SHT30;54238;52.278;21.056;2023-09-08T13:21:11;39.28;24.67
67354;SHT30;54238;52.278;21.056;2023-09-08T13:23:41;39.60;24.24
67354;SHT30;54238;52.278;21.056;2023-09-08T13:26:08;39.76;24.41
67354;SHT30;54238;52.278;21.056;2023-09-08T13:28:40;39.91;24.36
67354;SHT30;54238;52.278;21.056;2023-09-08T13:31:09;40.19;23.76
67354;SHT30;54238;52.278;21.056;2023-09-08T13:33:38;40.46;23.93
67354;SHT30;54238;52.278;21.056;2023-09-08T13:36:10;40.71;23.51
67354;SHT30;54238;52.278;21.056;2023-09-08T13:38:42;40.90;23.29
67354;SHT30;54238;52.278;21.056;2023-09-08T13:41:13;41.03;22.75
67354;SHT30;54238;52.278;21.056;2023-09-08T13:43:40;41.07;22.62
67354;SHT30;54238;52.278;21.056;2023-09-08T13:46:10;41.19;22.72
67354;SHT30;54238;52.278;21.056;2023-09-08T13:48:37;41.20;23.09
67354;SHT30;54238;52.278;21.056;2023-09-08T13:51:08;41.16;23.07
67354;SHT30;54238;52.278;21.056;2023-09-08T13:53:38;41.13;23.16
67354;SHT30;54238;52.278;21.056;2023-09-08T13:56:05;41.19;22.70
67354;SHT30;54238;52.278;21.056;2023-09-08T13:58:36;41.24;22.26
67354;SHT30;54238;52.278;21.056;2023-09-08T14:01:05;41.20;21.98
67354;SHT30;54238;52.278;21.056;2023-09-08T14:03:32;41.06;22.09
67354;SHT30;54238;52.278;21.056;2023-09-08T14:06:02;41.02;22.12
67354;SHT30;54238;52.278;21.056;2023-09-08T14:08:29;41.02;22.00
67354;SHT30;54238;52.278;21.056;2023-09-08T14:10:59;40.92;21.85
67354;SHT30;54238;52.278;21.056;2023-09-08T14:13:30;40.76;22.09
67354;SHT30;54238;52.278;21.056;2023-09-08T14:16:02;40.55;22.09
67354;SHT30;54238;52.278;21.056;2023-09-08T14:18:29;40.34;22.04
67354;SHT30;54238;52.278;21.056;2023-09-08T14:20:57;39.97;22.08
67354;SHT30;54238;52.278;21.056;2023-09-08T14:23:29;39.71;22.38
67354;SHT30;54238;52.278;21.056;2023-09-08T14:26:00;39.59;22.69
67354;SHT30;54238;52.278;21.056;2023-09-08T14:28:29;39.37;22.88
67354;SHT30;54238;52.278;21.056;2023-09-08T14:31:01;39.04;23.42
67354;SHT30;54238;52.278;21.056;2023-09-08T14:33:33;39.07;23.41
67354;SHT30;54238;52.278;21.056;2023-09-08T14:36:05;39.21;23.28
67354;SHT30;54238;52.278;21.056;2023-09-08T14:38:37;39.26;23.29
67354;SHT30;54238;52.278;21.056;2023-09-08T14:41:09;39.27;23.16
67354;SHT30;54238;52.278;21.056;2023-09-08T14:43:38;39.14;23.17
67354;SHT30;54238;52.278;21.056;2023-09-08T14:46:05;38.95;23.39
67354;SHT30;54238;52.278;21.056;2023-09-08T14:48:35;38.74;23.97
67354;SHT30;54238;52.278;21.056;2023-09-08T14:51:03;38.69;23.90
67354;SHT30;54238;52.278;21.056;2023-09-08T14:53:30;38.71;23.70
67354;SHT30;54238;52.278;21.056;2023-09-08T14:55:58;38.78;23.84
67354;SHT30;54238;52.278;21.056;2023-09-08T14:58:30;38.78;23.89
67354;SHT30;54238;52.278;21.056;2023-09-08T15:01:01;38.70;24.44
67354;SHT30;54238;52.278;21.056;2023-09-08T15:03:31;38.65;24.16
67354;SHT30;54238;52.278;21.056;2023-09-08T15:05:59;38.53;24.25
67354;SHT30;54238;52.278;21.056;2023-09-08T15:08:28;38.32;24.66
67354;SHT30;54238;52.278;21.056;2023-09-08T15:10:58;38.14;25.15
67354;SHT30;54238;52.278;21.056;2023-09-08T15:13:25;38.08;25.14
67354;SHT30;54238;52.278;21.056;2023-09-08T15:15:57;38.06;24.77
67354;SHT30;54238;52.278;21.056;2023-09-08T15:18:29;37.93;24.96
67354;SHT30;54238;52.278;21.056;2023-09-08T15:20:59;37.83;25.07
67354;SHT30;54238;52.278;21.056;2023-09-08T15:23:26;37.67;25.22
67354;SHT30;54238;52.278;21.056;2023-09-08T15:25:54;37.54;25.27
67354;SHT30;54238;52.278;21.056;2023-09-08T15:28:26;37.38;25.37
67354;SHT30;54238;52.278;21.056;2023-09-08T15:30:54;37.16;25.72
67354;SHT30;54238;52.278;21.056;2023-09-08T15:33:21;36.88;26.20
67354;SHT30;54238;52.278;21.056;2023-09-08T15:35:53;36.70;25.96
67354;SHT30;54238;52.278;21.056;2023-09-08T15:38:21;36.32;26.10
67354;SHT30;54238;52.278;21.056;2023-09-08T15:41:32;36.04;26.57
67354;SHT30;54238;52.278;21.056;2023-09-08T15:43:45;35.76;27.12
67354;SHT30;54238;52.278;21.056;2023-09-08T15:46:15;35.54;27.50